»·PEaware :: N251CV KLVK-KACV

N251CV :: KLVK-KACV

FLIGHT INFORMATION

Flight Status: Arrived
Operator: Privately registered:
United States
More flights under this callsign
Pilot: Chase C. (10526)
Aircraft: Unknown
(SF50)
More flights by this aircraft type
Origin: KLVK Livermore Mun
United States
Destination: KACV Arcata
United States
More flights between these airports :: More routes between these airports
Route: +SAC RBL YAGER
File this flight plan on PilotEdge
Remarks:
Altitude:
(Current/Filed)
20,000ft
Speed:
(Current/Filed)
300kts
Departed: 07-Dec-17 09:33 AM
Arrived: 07-Dec-17 10:32 AM
Distance/Time
Traveled:
224nm/0:59
Distance/Time
To Go:
Arrived

Flight Plot

Page will automatically refresh every two minutes.

Flight plan parsing failed; only flown route is shown


Map Options




Map Legend


Flown Route
Filed Route
Departure Airport
Arrival Airport
Navaid (VOR, NDB)
Fix

Horizontal Profiles

Position Reports

Time Latitude Longitude Heading Altitude Ground
Speed
07-Dec-17 09:26 37.691339 -121.812389 90 403ft 0kts
07-Dec-17 09:28 37.691339 -121.812389 90 403ft 0kts
07-Dec-17 09:29 37.691339 -121.812389 90 403ft 0kts
07-Dec-17 09:30 37.691339 -121.812389 90 403ft 0kts
07-Dec-17 09:31 37.691339 -121.812389 90 403ft 0kts
07-Dec-17 09:32 37.691339 -121.812389 90 403ft 0kts
07-Dec-17 09:33 37.691339 -121.812389 90 403ft 0kts
07-Dec-17 09:34 37.691339 -121.812389 90 403ft 0kts
07-Dec-17 09:35 37.691339 -121.812389 90 403ft 0kts
07-Dec-17 09:36 37.691339 -121.812389 90 403ft 0kts
07-Dec-17 09:37 37.691741 -121.812299 358 403ft 10kts
07-Dec-17 09:38 37.693654 -121.811271 352 403ft 7kts
07-Dec-17 09:39 37.693901 -121.837533 269 1022ft 162kts
07-Dec-17 09:40 37.731131 -121.855220 33 3163ft 229kts
07-Dec-17 09:41 37.787265 -121.807977 34 5272ft 259kts
07-Dec-17 09:41 37.814547 -121.744795 35 6900ft 238kts
07-Dec-17 09:43 37.886106 -121.721653 13 8810ft 235kts
07-Dec-17 09:44 37.950839 -121.702151 15 10356ft 245kts
07-Dec-17 09:45 38.017636 -121.681806 15 11848ft 259kts
07-Dec-17 09:46 38.088917 -121.660161 16 13362ft 273kts
07-Dec-17 09:47 38.163095 -121.637576 16 14857ft 276kts
07-Dec-17 09:48 38.237026 -121.615012 17 16337ft 273kts
07-Dec-17 09:48 38.296173 -121.596915 17 17534ft 268kts
07-Dec-17 09:50 38.369803 -121.574331 17 19057ft 260kts
07-Dec-17 09:50 38.427226 -121.556699 17 20278ft 253kts
07-Dec-17 09:51 38.495093 -121.572700 348 20482ft 257kts
07-Dec-17 09:52 38.567849 -121.601809 347 20481ft 286kts
07-Dec-17 09:53 38.643793 -121.632617 347 20478ft 290kts
07-Dec-17 09:54 38.720913 -121.663965 347 20473ft 292kts
07-Dec-17 09:55 38.797870 -121.695304 347 20473ft 292kts
07-Dec-17 09:56 38.875385 -121.726935 347 20472ft 293kts
07-Dec-17 09:57 38.952920 -121.758661 346 20477ft 294kts
07-Dec-17 09:58 39.031464 -121.790846 345 20486ft 307kts
07-Dec-17 09:59 39.114231 -121.824919 345 20487ft 319kts
07-Dec-17 10:00 39.199230 -121.859971 345 20485ft 324kts
07-Dec-17 10:01 39.285213 -121.895496 345 20489ft 326kts
07-Dec-17 10:02 39.371206 -121.931083 345 20494ft 327kts
07-Dec-17 10:03 39.456815 -121.966638 345 20494ft 327kts
07-Dec-17 10:04 39.543263 -122.002660 345 20494ft 327kts
07-Dec-17 10:05 39.628700 -122.038342 345 20493ft 327kts
07-Dec-17 10:06 39.715253 -122.074578 345 20494ft 327kts
07-Dec-17 10:07 39.801584 -122.110781 345 20494ft 327kts
07-Dec-17 10:08 39.887785 -122.147046 345 20496ft 327kts
07-Dec-17 10:09 39.973711 -122.183308 345 20500ft 327kts
07-Dec-17 10:10 40.059703 -122.219691 345 20501ft 327kts
07-Dec-17 10:11 40.117111 -122.299560 295 19421ft 313kts
07-Dec-17 10:12 40.148203 -122.402435 293 18407ft 300kts
07-Dec-17 10:13 40.177956 -122.503189 292 17413ft 295kts
07-Dec-17 10:14 40.207089 -122.602279 292 16432ft 293kts
07-Dec-17 10:15 40.235514 -122.699320 291 15459ft 291kts
07-Dec-17 10:16 40.264134 -122.797412 290 14464ft 289kts
07-Dec-17 10:17 40.292519 -122.895060 290 14086ft 304kts
07-Dec-17 10:18 40.340293 -122.984961 303 14059ft 310kts
07-Dec-17 10:19 40.390868 -123.072897 305 14058ft 300kts
07-Dec-17 10:20 40.440641 -123.159470 304 14059ft 297kts
07-Dec-17 10:21 40.489691 -123.244969 304 13834ft 304kts
07-Dec-17 10:22 40.538087 -123.329485 304 12798ft 267kts
07-Dec-17 10:23 40.580627 -123.404005 305 12005ft 246kts
07-Dec-17 10:24 40.622306 -123.477195 305 12006ft 263kts
07-Dec-17 10:25 40.663991 -123.550510 305 11998ft 254kts
07-Dec-17 10:26 40.705933 -123.624521 305 11991ft 251kts
07-Dec-17 10:27 40.747392 -123.697822 304 11982ft 249kts
07-Dec-17 10:28 40.788277 -123.770285 304 11629ft 241kts
07-Dec-17 10:29 40.826655 -123.838488 304 10428ft 228kts
07-Dec-17 10:30 40.863628 -123.904291 305 8932ft 221kts
07-Dec-17 10:31 40.899855 -123.968915 306 7144ft 224kts
07-Dec-17 10:32 40.935965 -124.033444 306 5044ft 214kts
07-Dec-17 10:33 40.970446 -124.095191 307 3029ft 206kts
07-Dec-17 10:34 41.006364 -124.141930 357 1294ft 144kts
07-Dec-17 10:35 41.003959 -124.119173 174 780ft 118kts
07-Dec-17 10:36 40.982824 -124.111476 144 225ft 51kts
07-Dec-17 10:37 40.975696 -124.107759 150 225ft 13kts
07-Dec-17 10:38 40.973256 -124.107677 151 225ft 0kts
07-Dec-17 10:39 40.973256 -124.107677 151 225ft 0kts

Navigation Log

Ident Type
Flight plan parsing failed, navigation log unavailable